Time;durP1;ratioP1;P1;durP2;ratioP2;P2;SDS_P1;SDS_P2;PMS_P1;PMS_P2;Temp;Humidity;BMP_temperature;BMP_pressure;BME280_temperature;BME280_humidity;BME280_pressure;Samples;Min_cycle;Max_cycle;Signal;HPM_P1;HPM_P2
2022/10/26 00:00:07;;;;;;;;;;;26.20;94.80;;;;;;5107365;28;19957;-66
2022/10/26 00:02:34;;;;;;;;;;;26.40;94.80;;;;;;5106778;28;19907;-68
2022/10/26 00:05:00;;;;;;;;;;;26.50;94.40;;;;;;5088257;28;19919;-67
2022/10/26 00:07:28;;;;;;;;;;;26.40;93.80;;;;;;5107516;28;19908;-67
2022/10/26 00:09:55;;;;;;;;;;;26.20;93.70;;;;;;5107084;28;19930;-68
2022/10/26 00:12:21;;;;;;;;;;;26.00;94.40;;;;;;5106800;28;19908;-66
2022/10/26 00:14:48;;;;;;;;;;;25.90;94.50;;;;;;5106898;28;19912;-67
2022/10/26 00:17:14;;;;;;;;;;;25.80;94.70;;;;;;5106474;28;19908;-69
2022/10/26 00:19:41;;;;;;;;;;;25.80;94.90;;;;;;5107383;28;19907;-67
2022/10/26 00:22:08;;;;;;;;;;;25.70;94.60;;;;;;5106677;28;19954;-67
2022/10/26 00:24:34;;;;;;;;;;;25.70;94.70;;;;;;5106860;28;19919;-68
2022/10/26 00:27:01;;;;;;;;;;;25.60;94.50;;;;;;5106772;28;19908;-68
2022/10/26 00:29:27;;;;;;;;;;;25.60;94.70;;;;;;5106872;28;19908;-67
2022/10/26 00:31:54;;;;;;;;;;;25.50;94.80;;;;;;5106518;28;19908;-66
2022/10/26 00:34:21;;;;;;;;;;;25.50;94.60;;;;;;5106277;28;19908;-67
2022/10/26 00:36:47;;;;;;;;;;;25.70;95.00;;;;;;5106661;28;19908;-68
2022/10/26 00:39:14;;;;;;;;;;;25.90;94.50;;;;;;5106344;28;20245;-68
2022/10/26 00:41:40;;;;;;;;;;;26.10;94.40;;;;;;5106899;28;19958;-68
2022/10/26 00:44:26;;;;;;;;;;;26.40;94.00;;;;;;5104806;28;19955;-69
2022/10/26 00:46:52;;;;;;;;;;;26.80;94.00;;;;;;5106020;28;19939;-67
2022/10/26 00:49:19;;;;;;;;;;;27.00;92.50;;;;;;5106499;28;19912;-66
2022/10/26 00:51:48;;;;;;;;;;;27.10;92.40;;;;;;5106159;28;19915;-67
2022/10/26 00:54:19;;;;;;;;;;;27.20;92.80;;;;;;5106311;28;19951;-68
2022/10/26 00:56:47;;;;;;;;;;;27.20;91.20;;;;;;5106732;28;20365;-68
2022/10/26 00:59:15;;;;;;;;;;;27.10;90.20;;;;;;5105857;28;19960;-68
2022/10/26 01:01:43;;;;;;;;;;;27.30;90.10;;;;;;5106216;28;19908;-67
2022/10/26 01:04:11;;;;;;;;;;;27.60;89.40;;;;;;5105304;28;19919;-67
2022/10/26 01:06:38;;;;;;;;;;;27.50;88.80;;;;;;5087615;28;20368;-67
2022/10/26 01:09:05;;;;;;;;;;;27.70;89.80;;;;;;5106383;28;19912;-68
2022/10/26 01:11:32;;;;;;;;;;;28.00;90.20;;;;;;5105781;28;19958;-67
2022/10/26 01:13:59;;;;;;;;;;;28.50;89.70;;;;;;5105474;28;19908;-68
2022/10/26 01:16:29;;;;;;;;;;;28.50;88.00;;;;;;5105901;28;20269;-67
2022/10/26 01:18:59;;;;;;;;;;;28.40;86.60;;;;;;5105650;28;20359;-67
2022/10/26 01:21:44;;;;;;;;;;;28.10;86.60;;;;;;5105489;28;19933;-67
2022/10/26 01:24:29;;;;;;;;;;;27.90;86.70;;;;;;5087450;28;19915;-68
2022/10/26 01:27:01;;;;;;;;;;;28.00;85.90;;;;;;5105866;28;19908;-68
2022/10/26 01:29:40;;;;;;;;;;;28.00;84.90;;;;;;5105410;28;19911;-67
2022/10/26 01:32:12;;;;;;;;;;;27.90;83.90;;;;;;5105069;28;19911;-67
2022/10/26 01:34:44;;;;;;;;;;;27.60;84.20;;;;;;5105542;28;19907;-67
2022/10/26 01:37:13;;;;;;;;;;;27.80;84.40;;;;;;5105473;28;19953;-67
2022/10/26 01:39:52;;;;;;;;;;;28.20;84.20;;;;;;5087394;28;19957;-67
2022/10/26 01:42:21;;;;;;;;;;;28.40;82.00;;;;;;5104876;28;19915;-67
2022/10/26 01:44:51;;;;;;;;;;;28.50;82.10;;;;;;5104941;28;19919;-67
2022/10/26 01:47:20;;;;;;;;;;;28.50;81.00;;;;;;5104675;28;20016;-66
2022/10/26 01:49:53;;;;;;;;;;;28.50;80.30;;;;;;5087259;28;19907;-67
2022/10/26 01:52:20;;;;;;;;;;;28.30;79.80;;;;;;5104517;28;20382;-68
2022/10/26 01:54:47;;;;;;;;;;;28.00;80.10;;;;;;5104842;28;19908;-67
2022/10/26 01:57:18;;;;;;;;;;;27.80;78.60;;;;;;5105312;28;19922;-67
2022/10/26 02:00:05;;;;;;;;;;;27.90;77.90;;;;;;5105427;28;19908;-67
2022/10/26 02:02:35;;;;;;;;;;;28.20;77.10;;;;;;5104863;28;20431;-68
2022/10/26 02:05:09;;;;;;;;;;;28.80;77.00;;;;;;5103929;28;20190;-67
2022/10/26 02:07:35;;;;;;;;;;;29.00;74.20;;;;;;5104893;28;20352;-68
2022/10/26 02:10:11;;;;;;;;;;;29.00;74.40;;;;;;5105117;28;19964;-68
2022/10/26 02:12:44;;;;;;;;;;;29.00;74.70;;;;;;5104639;28;19914;-68
2022/10/26 02:15:11;;;;;;;;;;;29.10;74.80;;;;;;5104692;28;19930;-67
2022/10/26 02:17:45;;;;;;;;;;;29.20;74.50;;;;;;5104654;28;19908;-68
2022/10/26 02:20:21;;;;;;;;;;;29.20;74.10;;;;;;5104929;28;19957;-67
2022/10/26 02:22:49;;;;;;;;;;;29.30;74.40;;;;;;5105339;28;20267;-67
2022/10/26 02:25:38;;;;;;;;;;;29.40;75.00;;;;;;5104979;28;19922;-68
2022/10/26 02:28:07;;;;;;;;;;;29.50;74.40;;;;;;5104575;28;19911;-68
2022/10/26 02:30:34;;;;;;;;;;;29.70;74.50;;;;;;5086467;28;20314;-68
2022/10/26 02:33:01;;;;;;;;;;;30.20;73.60;;;;;;5105269;28;20356;-67
2022/10/26 02:35:30;;;;;;;;;;;30.90;71.90;;;;;;5104462;28;20349;-68
2022/10/26 02:37:59;;;;;;;;;;;31.30;70.50;;;;;;5104904;28;19953;-67
2022/10/26 02:40:26;;;;;;;;;;;31.60;69.70;;;;;;5104167;28;19908;-68
2022/10/26 02:42:53;;;;;;;;;;;31.80;68.90;;;;;;5104754;28;19954;-68
2022/10/26 02:45:29;;;;;;;;;;;32.10;66.50;;;;;;5104873;28;19923;-67
2022/10/26 02:47:56;;;;;;;;;;;32.10;67.60;;;;;;5104784;28;19977;-67
2022/10/26 02:50:25;;;;;;;;;;;31.80;65.70;;;;;;5104349;28;19908;-68
2022/10/26 02:53:12;;;;;;;;;;;31.30;66.00;;;;;;5104666;28;19922;-68
2022/10/26 02:55:42;;;;;;;;;;;31.60;65.80;;;;;;5104572;28;19961;-68
2022/10/26 02:58:14;;;;;;;;;;;32.80;64.00;;;;;;5104814;28;19961;-68
2022/10/26 03:00:41;;;;;;;;;;;33.80;63.00;;;;;;5104256;28;20008;-68
2022/10/26 03:03:08;;;;;;;;;;;33.90;60.90;;;;;;5104605;28;20368;-67
2022/10/26 03:05:37;;;;;;;;;;;34.00;60.60;;;;;;5104378;28;19923;-67
2022/10/26 03:08:04;;;;;;;;;;;33.30;60.80;;;;;;5107997;28;19998;-67
2022/10/26 03:10:32;;;;;;;;;;;32.40;61.70;;;;;;5107717;28;20032;-67
2022/10/26 03:12:58;;;;;;;;;;;31.70;64.10;;;;;;5108507;28;20099;-67
2022/10/26 03:15:25;;;;;;;;;;;31.40;64.10;;;;;;5108143;28;20373;-68
2022/10/26 03:17:52;;;;;;;;;;;32.00;63.20;;;;;;5109012;28;20249;-67
2022/10/26 03:20:18;;;;;;;;;;;32.70;63.20;;;;;;5107785;28;19931;-67
2022/10/26 03:22:46;;;;;;;;;;;34.20;61.70;;;;;;5107989;28;20115;-68
2022/10/26 03:25:14;;;;;;;;;;;35.20;58.70;;;;;;5108271;28;19915;-67
2022/10/26 03:27:41;;;;;;;;;;;35.90;58.00;;;;;;5108033;28;19908;-67
2022/10/26 03:30:08;;;;;;;;;;;36.20;56.20;;;;;;5107916;28;20115;-67
2022/10/26 03:32:35;;;;;;;;;;;35.80;56.50;;;;;;5107398;28;20364;-68
2022/10/26 03:35:01;;;;;;;;;;;35.40;57.00;;;;;;5107727;28;19921;-67
2022/10/26 03:37:28;;;;;;;;;;;35.50;57.70;;;;;;5107542;28;19961;-68
2022/10/26 03:39:54;;;;;;;;;;;36.00;56.10;;;;;;5107550;28;19969;-67
2022/10/26 03:42:21;;;;;;;;;;;36.30;55.40;;;;;;5107604;28;19915;-67
2022/10/26 03:44:48;;;;;;;;;;;36.50;55.20;;;;;;5107449;28;19916;-68
2022/10/26 03:47:14;;;;;;;;;;;36.70;55.20;;;;;;5108264;28;19908;-68
2022/10/26 03:49:41;;;;;;;;;;;37.00;55.40;;;;;;5106932;28;19909;-68
2022/10/26 03:52:07;;;;;;;;;;;37.20;53.80;;;;;;5088863;28;19912;-68
2022/10/26 03:54:34;;;;;;;;;;;36.30;54.10;;;;;;5107262;28;19915;-68
2022/10/26 03:57:01;;;;;;;;;;;36.00;55.30;;;;;;5107625;28;20327;-66
2022/10/26 03:59:27;;;;;;;;;;;36.10;54.70;;;;;;5106966;28;20265;-66
2022/10/26 04:01:54;;;;;;;;;;;36.10;55.80;;;;;;5106654;28;20615;-66
2022/10/26 04:04:21;;;;;;;;;;;36.80;52.90;;;;;;5107627;28;20045;-67
2022/10/26 04:06:47;;;;;;;;;;;36.80;52.80;;;;;;5088672;28;20068;-68
2022/10/26 04:09:14;;;;;;;;;;;37.20;52.50;;;;;;5107081;28;19994;-67
2022/10/26 04:11:40;;;;;;;;;;;37.80;51.80;;;;;;5106686;28;19994;-67
2022/10/26 04:14:07;;;;;;;;;;;39.20;51.00;;;;;;5107100;28;19908;-67
2022/10/26 04:16:34;;;;;;;;;;;40.90;49.60;;;;;;5107251;28;19907;-68
2022/10/26 04:19:00;;;;;;;;;;;41.40;48.00;;;;;;5106348;28;19908;-67
2022/10/26 04:21:27;;;;;;;;;;;41.50;48.50;;;;;;5105821;28;20007;-67
2022/10/26 04:23:53;;;;;;;;;;;41.90;48.10;;;;;;5105525;28;19916;-68
2022/10/26 04:26:20;;;;;;;;;;;42.20;47.20;;;;;;5087579;28;19908;-68
2022/10/26 04:28:47;;;;;;;;;;;42.00;46.70;;;;;;5105901;28;19915;-67
2022/10/26 04:31:13;;;;;;;;;;;40.70;46.40;;;;;;5104863;28;19911;-67
2022/10/26 04:33:40;;;;;;;;;;;40.10;48.30;;;;;;5105354;28;19915;-67
2022/10/26 04:36:07;;;;;;;;;;;40.20;48.30;;;;;;5106490;28;19917;-67
2022/10/26 04:38:33;;;;;;;;;;;40.40;47.60;;;;;;5106558;28;20110;-67
2022/10/26 04:41:00;;;;;;;;;;;40.70;47.90;;;;;;5105828;28;20296;-67
2022/10/26 04:43:27;;;;;;;;;;;41.60;46.00;;;;;;5106312;28;19926;-67
2022/10/26 04:45:56;;;;;;;;;;;40.60;46.70;;;;;;5106031;28;20257;-68
2022/10/26 04:48:23;;;;;;;;;;;40.00;48.10;;;;;;5106422;28;20380;-67
2022/10/26 04:50:50;;;;;;;;;;;41.10;47.10;;;;;;5105406;28;19908;-67
2022/10/26 04:53:16;;;;;;;;;;;41.70;46.90;;;;;;5105717;28;19946;-69
2022/10/26 04:55:43;;;;;;;;;;;41.90;45.50;;;;;;5105814;28;19908;-68
2022/10/26 04:58:10;;;;;;;;;;;42.00;45.80;;;;;;5105888;28;20006;-67
2022/10/26 05:00:36;;;;;;;;;;;42.10;45.90;;;;;;5105412;28;19951;-68
2022/10/26 05:03:04;;;;;;;;;;;42.10;45.70;;;;;;5104523;28;19920;-69
2022/10/26 05:05:31;;;;;;;;;;;42.20;45.40;;;;;;5106128;28;19922;-68
2022/10/26 05:07:58;;;;;;;;;;;42.00;45.70;;;;;;5105821;28;19907;-68
2022/10/26 05:10:25;;;;;;;;;;;42.20;45.30;;;;;;5105774;28;20212;-68
2022/10/26 05:12:52;;;;;;;;;;;42.70;44.90;;;;;;5104888;28;19916;-68
2022/10/26 05:15:19;;;;;;;;;;;42.60;45.80;;;;;;5105409;28;19912;-67
2022/10/26 05:17:46;;;;;;;;;;;43.00;45.00;;;;;;5105501;28;19908;-67
2022/10/26 05:20:13;;;;;;;;;;;43.00;44.40;;;;;;5099914;28;19911;-68
2022/10/26 05:22:40;;;;;;;;;;;42.80;44.70;;;;;;5103640;28;19915;-70
2022/10/26 05:25:07;;;;;;;;;;;41.80;45.50;;;;;;5103047;28;19919;-69
2022/10/26 05:27:33;;;;;;;;;;;41.80;46.00;;;;;;5104907;28;19908;-67
2022/10/26 05:30:00;;;;;;;;;;;41.40;45.40;;;;;;5104445;28;19914;-68
2022/10/26 05:32:27;;;;;;;;;;;41.40;45.80;;;;;;5105109;28;20379;-68
2022/10/26 05:34:53;;;;;;;;;;;41.50;46.70;;;;;;5104257;28;19915;-68
2022/10/26 05:37:20;;;;;;;;;;;41.60;46.50;;;;;;5104977;28;19988;-68
2022/10/26 05:39:46;;;;;;;;;;;42.10;45.50;;;;;;5105327;28;19939;-67
2022/10/26 05:42:13;;;;;;;;;;;42.30;44.40;;;;;;5104852;28;19908;-69
2022/10/26 05:44:39;;;;;;;;;;;41.50;46.30;;;;;;5105053;28;19923;-67
2022/10/26 05:47:06;;;;;;;;;;;40.30;47.20;;;;;;5104537;28;19911;-67
2022/10/26 05:49:33;;;;;;;;;;;39.80;48.20;;;;;;5105162;28;19908;-68
2022/10/26 05:51:59;;;;;;;;;;;39.20;46.90;;;;;;5103770;28;20181;-68
2022/10/26 05:54:26;;;;;;;;;;;38.30;47.60;;;;;;5104555;28;19912;-68
2022/10/26 05:56:53;;;;;;;;;;;37.80;49.80;;;;;;5104537;28;19918;-68
2022/10/26 05:59:19;;;;;;;;;;;37.10;48.60;;;;;;5102875;28;19907;-67
2022/10/26 06:02:01;;;;;;;;;;;36.80;49.80;;;;;;5078020;28;20387;-69
2022/10/26 06:04:41;;;;;;;;;;;36.20;48.70;;;;;;5095985;28;19920;-69
2022/10/26 06:07:12;;;;;;;;;;;35.10;50.50;;;;;;5104306;28;19937;-68
2022/10/26 06:09:39;;;;;;;;;;;34.20;51.40;;;;;;5105316;28;20249;-68
2022/10/26 06:12:07;;;;;;;;;;;33.60;52.50;;;;;;5094344;28;20357;-67
2022/10/26 06:14:34;;;;;;;;;;;33.50;52.00;;;;;;5084114;28;20150;-68
2022/10/26 06:17:02;;;;;;;;;;;33.20;52.90;;;;;;5083260;28;19912;-68
2022/10/26 06:19:37;;;;;;;;;;;33.70;51.80;;;;;;5083910;28;20288;-68
2022/10/26 06:22:07;;;;;;;;;;;34.00;51.30;;;;;;5083109;28;20019;-66
2022/10/26 06:24:34;;;;;;;;;;;34.40;51.30;;;;;;5083953;28;19916;-68
2022/10/26 06:27:11;;;;;;;;;;;34.90;51.10;;;;;;5083838;28;19939;-68
2022/10/26 06:29:40;;;;;;;;;;;35.30;50.80;;;;;;5083898;28;20402;-67
2022/10/26 06:32:08;;;;;;;;;;;34.80;51.80;;;;;;5083156;28;19911;-67
2022/10/26 06:34:36;;;;;;;;;;;34.70;51.30;;;;;;5084956;28;20387;-69
2022/10/26 06:37:03;;;;;;;;;;;34.80;52.70;;;;;;5092026;28;19919;-68
2022/10/26 06:39:31;;;;;;;;;;;35.40;51.10;;;;;;5092188;28;19912;-67
2022/10/26 06:41:58;;;;;;;;;;;35.10;51.60;;;;;;5102458;28;19919;-67
2022/10/26 06:44:24;;;;;;;;;;;34.30;52.50;;;;;;5106708;28;20090;-68
2022/10/26 06:46:51;;;;;;;;;;;33.20;53.60;;;;;;5107818;28;19976;-67
2022/10/26 06:49:26;;;;;;;;;;;32.30;54.60;;;;;;5101105;28;19912;-68
2022/10/26 06:52:02;;;;;;;;;;;31.40;56.00;;;;;;5087665;28;19915;-67
2022/10/26 06:54:47;;;;;;;;;;;30.80;57.50;;;;;;5095237;28;19919;-67
2022/10/26 06:57:15;;;;;;;;;;;30.40;57.80;;;;;;5087526;28;19908;-67
2022/10/26 06:59:48;;;;;;;;;;;30.10;58.50;;;;;;5087746;28;20265;-68
2022/10/26 07:02:14;;;;;;;;;;;29.70;58.50;;;;;;5093724;28;20046;-67
2022/10/26 07:04:41;;;;;;;;;;;29.50;59.00;;;;;;5101452;28;19920;-66
2022/10/26 07:07:09;;;;;;;;;;;29.30;59.90;;;;;;5086830;28;19941;-67
2022/10/26 07:09:35;;;;;;;;;;;29.10;59.80;;;;;;5098386;28;20363;-67
2022/10/26 07:12:02;;;;;;;;;;;28.90;59.10;;;;;;5087735;28;19912;-68
2022/10/26 07:14:29;;;;;;;;;;;28.60;59.30;;;;;;5098324;28;19996;-68
2022/10/26 07:16:55;;;;;;;;;;;28.40;59.70;;;;;;5088926;28;19958;-69
2022/10/26 07:19:22;;;;;;;;;;;28.30;60.40;;;;;;5099424;28;19919;-67
2022/10/26 07:21:49;;;;;;;;;;;28.10;60.10;;;;;;5087448;28;20002;-68
2022/10/26 07:24:15;;;;;;;;;;;28.10;60.70;;;;;;5096293;28;19926;-67
2022/10/26 07:26:42;;;;;;;;;;;27.90;60.90;;;;;;5107567;28;19908;-68
2022/10/26 07:29:09;;;;;;;;;;;27.80;61.50;;;;;;5101460;28;20390;-67
2022/10/26 07:31:35;;;;;;;;;;;27.70;62.30;;;;;;5087937;28;19908;-68
2022/10/26 07:34:02;;;;;;;;;;;27.60;62.10;;;;;;5105529;28;19957;-66
2022/10/26 07:36:28;;;;;;;;;;;27.40;62.30;;;;;;5106924;28;19922;-67
2022/10/26 07:38:55;;;;;;;;;;;27.40;62.60;;;;;;5103745;28;20010;-66
2022/10/26 07:41:22;;;;;;;;;;;27.30;62.70;;;;;;5086563;28;19912;-68
2022/10/26 07:43:49;;;;;;;;;;;27.30;62.60;;;;;;5102085;28;19920;-67
2022/10/26 07:46:17;;;;;;;;;;;27.10;63.00;;;;;;5106216;28;19912;-67
2022/10/26 07:48:44;;;;;;;;;;;27.10;63.30;;;;;;5106791;28;20379;-67
2022/10/26 07:51:10;;;;;;;;;;;27.10;63.30;;;;;;5106662;28;19912;-67
2022/10/26 07:53:37;;;;;;;;;;;27.00;63.60;;;;;;5097384;28;19956;-66
2022/10/26 07:56:04;;;;;;;;;;;26.90;63.70;;;;;;5086519;28;19915;-68
2022/10/26 07:58:31;;;;;;;;;;;26.90;63.70;;;;;;5086197;28;19915;-67
2022/10/26 08:00:57;;;;;;;;;;;26.90;64.10;;;;;;5087248;28;19908;-67
2022/10/26 08:03:24;;;;;;;;;;;26.80;64.10;;;;;;5090209;28;19926;-66
2022/10/26 08:05:54;;;;;;;;;;;26.80;64.50;;;;;;5086826;28;19926;-67
2022/10/26 08:08:21;;;;;;;;;;;26.70;64.40;;;;;;5103698;28;20325;-67
2022/10/26 08:10:48;;;;;;;;;;;26.70;64.90;;;;;;5107031;28;19915;-68
2022/10/26 08:13:14;;;;;;;;;;;26.70;64.70;;;;;;5092195;28;20010;-68
2022/10/26 08:15:41;;;;;;;;;;;26.60;64.80;;;;;;5086532;28;19915;-68
2022/10/26 08:18:08;;;;;;;;;;;26.60;65.40;;;;;;5086258;28;20007;-67
2022/10/26 08:20:34;;;;;;;;;;;26.60;65.60;;;;;;5088768;28;20399;-68
2022/10/26 08:23:04;;;;;;;;;;;26.60;65.30;;;;;;5090038;28;20006;-68
2022/10/26 08:25:31;;;;;;;;;;;26.50;65.40;;;;;;5085740;28;19943;-68
2022/10/26 08:28:04;;;;;;;;;;;26.50;65.60;;;;;;5106080;28;20029;-68
2022/10/26 08:30:31;;;;;;;;;;;26.40;65.70;;;;;;5103990;28;20105;-66
2022/10/26 08:32:58;;;;;;;;;;;26.40;66.40;;;;;;5090531;28;19918;-65
2022/10/26 08:35:25;;;;;;;;;;;26.40;65.80;;;;;;5067617;28;19914;-66
2022/10/26 08:37:52;;;;;;;;;;;26.30;65.60;;;;;;5085910;28;19927;-66
2022/10/26 08:40:21;;;;;;;;;;;26.30;65.70;;;;;;5094722;28;19928;-66
2022/10/26 08:42:49;;;;;;;;;;;26.30;65.80;;;;;;5106091;28;19979;-67
2022/10/26 08:45:22;;;;;;;;;;;26.30;66.10;;;;;;5106058;28;19916;-67
2022/10/26 08:47:52;;;;;;;;;;;26.20;65.60;;;;;;5106399;28;19931;-67
2022/10/26 08:50:27;;;;;;;;;;;26.20;65.70;;;;;;5105877;28;19934;-68
2022/10/26 08:53:02;;;;;;;;;;;26.10;66.20;;;;;;5105802;28;19911;-66
2022/10/26 08:55:34;;;;;;;;;;;26.10;66.60;;;;;;5105402;28;19908;-68
2022/10/26 08:58:01;;;;;;;;;;;26.00;66.50;;;;;;5105971;28;19911;-69
2022/10/26 09:00:28;;;;;;;;;;;26.10;66.90;;;;;;5104968;28;20408;-67
2022/10/26 09:02:55;;;;;;;;;;;26.00;66.80;;;;;;5105300;28;19919;-68
2022/10/26 09:05:26;;;;;;;;;;;26.00;67.20;;;;;;5099873;28;19972;-68
2022/10/26 09:07:54;;;;;;;;;;;26.00;67.70;;;;;;5095476;28;20374;-69
2022/10/26 09:10:30;;;;;;;;;;;25.90;67.80;;;;;;5095434;28;20430;-68
2022/10/26 09:13:05;;;;;;;;;;;25.80;67.50;;;;;;5085007;28;19957;-68
2022/10/26 09:15:55;;;;;;;;;;;25.80;68.00;;;;;;5084650;28;19939;-67
2022/10/26 09:18:37;;;;;;;;;;;25.80;68.10;;;;;;5100324;28;20356;-68
2022/10/26 09:21:13;;;;;;;;;;;25.70;68.30;;;;;;5105342;28;19951;-68
2022/10/26 09:23:48;;;;;;;;;;;25.70;68.10;;;;;;5085105;28;19920;-67
2022/10/26 09:26:20;;;;;;;;;;;25.70;68.00;;;;;;5102820;28;19908;-68
2022/10/26 09:28:47;;;;;;;;;;;25.60;68.10;;;;;;5103782;28;20019;-66
2022/10/26 09:31:15;;;;;;;;;;;25.60;68.30;;;;;;5097660;28;20010;-67
2022/10/26 09:33:42;;;;;;;;;;;25.60;68.20;;;;;;5096055;28;20354;-69
2022/10/26 09:36:19;;;;;;;;;;;25.60;67.70;;;;;;5084324;28;19954;-67
2022/10/26 09:38:58;;;;;;;;;;;25.60;68.20;;;;;;5103673;28;19918;-67
2022/10/26 09:41:41;;;;;;;;;;;25.60;67.80;;;;;;5086562;28;19951;-67
2022/10/26 09:44:25;;;;;;;;;;;25.60;67.60;;;;;;5096184;28;19926;-68
2022/10/26 09:47:09;;;;;;;;;;;25.60;67.80;;;;;;5088388;28;20039;-68
2022/10/26 09:49:41;;;;;;;;;;;25.60;68.10;;;;;;5082467;28;19916;-69
2022/10/26 09:52:07;;;;;;;;;;;25.60;68.20;;;;;;5084636;28;19908;-67
2022/10/26 09:54:34;;;;;;;;;;;25.50;67.90;;;;;;5084421;28;19912;-66
2022/10/26 09:57:02;;;;;;;;;;;25.50;68.00;;;;;;5084574;28;19947;-66
2022/10/26 09:59:30;;;;;;;;;;;25.50;67.90;;;;;;5085202;28;19916;-66
2022/10/26 10:01:57;;;;;;;;;;;25.40;68.10;;;;;;5084306;28;19914;-66
2022/10/26 10:04:24;;;;;;;;;;;25.40;68.00;;;;;;5083976;28;19920;-67
2022/10/26 10:06:52;;;;;;;;;;;25.40;68.00;;;;;;5084183;28;19908;-67
2022/10/26 10:09:19;;;;;;;;;;;25.40;67.50;;;;;;5084856;28;19912;-66
2022/10/26 10:11:53;;;;;;;;;;;25.40;67.60;;;;;;5084575;28;19964;-67
2022/10/26 10:14:24;;;;;;;;;;;25.30;67.40;;;;;;5099251;28;19920;-68
2022/10/26 10:17:01;;;;;;;;;;;25.30;67.80;;;;;;5104384;28;19915;-68
2022/10/26 10:19:28;;;;;;;;;;;25.20;67.70;;;;;;5104714;28;19915;-68
2022/10/26 10:21:56;;;;;;;;;;;25.10;68.10;;;;;;5103864;28;19912;-67
2022/10/26 10:24:26;;;;;;;;;;;25.10;68.60;;;;;;5104211;28;19920;-68
2022/10/26 10:26:58;;;;;;;;;;;25.10;68.20;;;;;;5104556;28;20287;-68
2022/10/26 10:29:25;;;;;;;;;;;25.00;68.40;;;;;;5104744;28;19908;-67
2022/10/26 10:31:56;;;;;;;;;;;25.00;68.80;;;;;;5104332;28;20368;-67
2022/10/26 10:34:23;;;;;;;;;;;24.90;68.90;;;;;;5104385;28;19912;-68
2022/10/26 10:36:49;;;;;;;;;;;24.80;69.30;;;;;;5104697;28;19915;-68
2022/10/26 10:39:34;;;;;;;;;;;24.80;69.20;;;;;;5103973;28;19911;-68
2022/10/26 10:42:01;;;;;;;;;;;24.70;69.60;;;;;;5103757;28;19907;-66
2022/10/26 10:44:30;;;;;;;;;;;24.60;69.70;;;;;;5103911;28;19926;-67
2022/10/26 10:47:04;;;;;;;;;;;24.60;69.60;;;;;;5104537;28;19915;-67
2022/10/26 10:49:31;;;;;;;;;;;24.60;69.60;;;;;;5104768;28;19915;-67
2022/10/26 10:51:57;;;;;;;;;;;24.50;69.80;;;;;;5104376;28;19907;-66
2022/10/26 10:54:28;;;;;;;;;;;24.50;70.40;;;;;;5104761;28;19951;-66
2022/10/26 10:57:15;;;;;;;;;;;24.40;70.30;;;;;;5104210;28;19912;-67
2022/10/26 10:59:50;;;;;;;;;;;24.40;70.90;;;;;;5062900;28;19922;-66
2022/10/26 11:02:31;;;;;;;;;;;24.40;70.60;;;;;;5104370;28;20033;-67
2022/10/26 11:05:12;;;;;;;;;;;24.30;71.10;;;;;;5084409;28;19926;-66
2022/10/26 11:07:44;;;;;;;;;;;24.30;71.20;;;;;;5084151;28;19916;-67
2022/10/26 11:10:14;;;;;;;;;;;24.20;71.60;;;;;;5084017;28;20121;-66
2022/10/26 11:12:47;;;;;;;;;;;24.20;71.60;;;;;;5084372;28;20317;-66
2022/10/26 11:15:17;;;;;;;;;;;24.10;71.70;;;;;;5083504;28;19909;-67
2022/10/26 11:17:52;;;;;;;;;;;24.00;72.10;;;;;;5084619;28;20387;-67
2022/10/26 11:20:22;;;;;;;;;;;24.00;73.00;;;;;;5083958;28;19912;-67
2022/10/26 11:22:51;;;;;;;;;;;23.90;72.50;;;;;;5084087;28;19999;-67
2022/10/26 11:25:34;;;;;;;;;;;23.90;72.80;;;;;;5083432;28;19926;-67
2022/10/26 11:28:20;;;;;;;;;;;23.80;72.90;;;;;;5085716;28;19908;-67
2022/10/26 11:30:50;;;;;;;;;;;23.80;73.60;;;;;;5098940;28;19912;-67
2022/10/26 11:33:28;;;;;;;;;;;23.70;73.90;;;;;;5102840;28;20303;-68
2022/10/26 11:36:01;;;;;;;;;;;23.70;73.90;;;;;;5087255;28;19912;-67
2022/10/26 11:38:40;;;;;;;;;;;23.60;74.10;;;;;;5087411;28;20118;-68
2022/10/26 11:41:13;;;;;;;;;;;23.50;74.70;;;;;;5087274;28;20053;-67
2022/10/26 11:44:08;;;;;;;;;;;23.50;74.60;;;;;;5086360;28;19920;-67
2022/10/26 11:46:43;;;;;;;;;;;23.40;74.90;;;;;;5073418;28;20057;-67
2022/10/26 11:49:13;;;;;;;;;;;23.40;74.80;;;;;;5087150;28;20004;-68
2022/10/26 11:51:49;;;;;;;;;;;23.30;75.20;;;;;;5086450;28;19916;-68
2022/10/26 11:54:21;;;;;;;;;;;23.30;75.70;;;;;;5087174;28;19916;-66
2022/10/26 11:56:50;;;;;;;;;;;23.20;75.60;;;;;;5086809;28;19908;-66
2022/10/26 11:59:20;;;;;;;;;;;23.20;75.90;;;;;;5087167;28;20057;-67
2022/10/26 12:02:07;;;;;;;;;;;23.10;76.20;;;;;;5096065;28;19911;-66
2022/10/26 12:04:36;;;;;;;;;;;23.10;76.30;;;;;;5095340;28;19951;-67
2022/10/26 12:07:04;;;;;;;;;;;23.10;76.40;;;;;;5107814;28;20333;-67
2022/10/26 12:09:31;;;;;;;;;;;23.00;76.60;;;;;;5106827;28;19917;-67
2022/10/26 12:12:01;;;;;;;;;;;23.00;76.90;;;;;;5106350;28;19957;-67
2022/10/26 12:14:46;;;;;;;;;;;23.00;77.40;;;;;;5106532;28;19911;-67
2022/10/26 12:17:25;;;;;;;;;;;23.00;78.10;;;;;;5107000;28;19915;-66
2022/10/26 12:20:00;;;;;;;;;;;22.90;78.60;;;;;;5106999;28;19904;-67
2022/10/26 12:22:30;;;;;;;;;;;22.90;78.60;;;;;;5106967;28;19947;-68
2022/10/26 12:25:15;;;;;;;;;;;22.80;78.70;;;;;;5106464;28;19930;-68
2022/10/26 12:27:41;;;;;;;;;;;22.80;78.40;;;;;;5106753;28;19907;-67
2022/10/26 12:30:11;;;;;;;;;;;22.80;78.30;;;;;;5104877;28;19912;-67
2022/10/26 12:32:39;;;;;;;;;;;22.70;78.50;;;;;;5086400;28;19912;-68
2022/10/26 12:35:29;;;;;;;;;;;22.70;79.00;;;;;;5085960;28;20356;-67
2022/10/26 12:37:56;;;;;;;;;;;22.70;79.10;;;;;;5077447;28;20284;-68
2022/10/26 12:40:31;;;;;;;;;;;22.60;79.10;;;;;;5086461;28;20152;-67
2022/10/26 12:43:18;;;;;;;;;;;22.60;80.10;;;;;;5085784;28;19908;-67
2022/10/26 12:45:45;;;;;;;;;;;22.60;79.90;;;;;;5074771;28;20422;-68
2022/10/26 12:48:21;;;;;;;;;;;22.60;80.20;;;;;;5086159;28;19951;-68
2022/10/26 12:50:48;;;;;;;;;;;22.50;79.80;;;;;;5085296;28;19912;-67
2022/10/26 12:53:16;;;;;;;;;;;22.50;80.10;;;;;;5086186;28;19955;-67
2022/10/26 12:55:49;;;;;;;;;;;22.50;79.70;;;;;;5085733;28;19912;-67
2022/10/26 12:58:25;;;;;;;;;;;22.50;80.00;;;;;;5085947;28;19908;-68
2022/10/26 13:01:11;;;;;;;;;;;22.50;80.00;;;;;;5084878;28;19913;-68
2022/10/26 13:03:50;;;;;;;;;;;22.50;80.30;;;;;;5043609;28;19966;-68
2022/10/26 13:06:34;;;;;;;;;;;22.50;81.30;;;;;;5066034;28;19952;-67
2022/10/26 13:09:07;;;;;;;;;;;22.40;80.60;;;;;;5065353;28;19909;-67
2022/10/26 13:11:37;;;;;;;;;;;22.40;81.50;;;;;;5065286;28;20230;-67
2022/10/26 13:14:08;;;;;;;;;;;22.40;81.80;;;;;;5064589;28;19955;-67
2022/10/26 13:16:35;;;;;;;;;;;22.30;81.50;;;;;;5065329;28;19912;-68
2022/10/26 13:19:01;;;;;;;;;;;22.30;80.90;;;;;;5064799;28;19931;-67
2022/10/26 13:21:28;;;;;;;;;;;22.30;81.10;;;;;;5065470;28;19981;-68
2022/10/26 13:24:00;;;;;;;;;;;22.30;81.20;;;;;;5064429;28;19912;-69
2022/10/26 13:26:28;;;;;;;;;;;22.30;81.70;;;;;;5065138;28;19920;-66
2022/10/26 13:28:59;;;;;;;;;;;22.20;82.30;;;;;;5063987;28;20391;-68
2022/10/26 13:31:31;;;;;;;;;;;22.30;82.90;;;;;;5064969;28;19913;-68
2022/10/26 13:34:24;;;;;;;;;;;22.20;83.00;;;;;;5064594;28;19917;-66
2022/10/26 13:37:03;;;;;;;;;;;22.20;83.50;;;;;;5062686;28;19909;-67
2022/10/26 13:39:32;;;;;;;;;;;22.10;83.50;;;;;;5064817;28;19915;-65
2022/10/26 13:41:59;;;;;;;;;;;22.10;83.70;;;;;;5079129;28;19912;-66
2022/10/26 13:44:48;;;;;;;;;;;22.10;83.50;;;;;;5084831;28;19938;-66
2022/10/26 13:47:21;;;;;;;;;;;22.10;83.90;;;;;;5084764;28;20341;-66
2022/10/26 13:49:50;;;;;;;;;;;22.00;84.10;;;;;;5084714;28;19931;-67
2022/10/26 13:52:28;;;;;;;;;;;21.90;84.20;;;;;;5083824;28;20381;-67
2022/10/26 13:55:00;;;;;;;;;;;21.90;84.10;;;;;;5084839;28;19908;-67
2022/10/26 13:57:30;;;;;;;;;;;22.00;84.80;;;;;;5084536;28;20360;-67
2022/10/26 13:59:57;;;;;;;;;;;21.90;84.70;;;;;;5084043;28;20265;-68
2022/10/26 14:02:25;;;;;;;;;;;21.90;84.90;;;;;;5085031;28;19920;-67
2022/10/26 14:05:04;;;;;;;;;;;21.90;84.80;;;;;;5105178;28;19916;-67
2022/10/26 14:07:31;;;;;;;;;;;21.90;85.40;;;;;;5105216;28;19912;-67
2022/10/26 14:09:58;;;;;;;;;;;21.80;86.00;;;;;;5103617;28;19908;-67
2022/10/26 14:12:27;;;;;;;;;;;21.80;86.60;;;;;;5084647;28;20024;-68
2022/10/26 14:14:56;;;;;;;;;;;21.80;86.80;;;;;;5084908;28;20315;-67
2022/10/26 14:17:25;;;;;;;;;;;21.70;86.90;;;;;;5084431;28;19908;-67
2022/10/26 14:19:51;;;;;;;;;;;21.60;87.00;;;;;;5102250;28;19912;-67
2022/10/26 14:22:20;;;;;;;;;;;21.60;87.90;;;;;;5086351;28;19950;-68
2022/10/26 14:24:54;;;;;;;;;;;21.50;87.80;;;;;;5104621;28;19915;-68
2022/10/26 14:27:23;;;;;;;;;;;21.50;88.70;;;;;;5086274;28;19923;-67
2022/10/26 14:29:51;;;;;;;;;;;21.50;88.00;;;;;;5083852;28;19912;-67
2022/10/26 14:32:20;;;;;;;;;;;21.50;88.50;;;;;;5083956;28;19908;-66